Time;durP1;ratioP1;P1;durP2;ratioP2;P2;SDS_P1;SDS_P2;PMS_P1;PMS_P2;Temp;Humidity;BMP_temperature;BMP_pressure;BME280_temperature;BME280_humidity;BME280_pressure;Samples;Min_cycle;Max_cycle;Signal;HPM_P1;HPM_P2
2022/07/21 00:00:48;;;;;;;6.55;4.85;;;;;;;18.91;80.94;96340.53;2056245;28;20398;-44
2022/07/21 00:01:50;;;;;;;8.07;5.22;;;;;;;18.93;81.29;96341.25;2047874;29;20047;-47
2022/07/21 00:02:52;;;;;;;6.20;5.47;;;;;;;18.92;81.80;96342.19;2048510;28;20102;-46
2022/07/21 00:03:53;;;;;;;7.30;5.28;;;;;;;18.81;83.05;96339.53;2048400;28;20047;-43
2022/07/21 00:04:54;;;;;;;7.43;5.65;;;;;;;18.76;82.96;96341.66;2047793;29;20115;-45
2022/07/21 00:05:55;;;;;;;11.40;6.00;;;;;;;18.70;83.90;96345.56;2032568;29;20052;-46
2022/07/21 00:06:56;;;;;;;9.18;5.97;;;;;;;18.63;84.54;96352.22;2041556;28;20052;-44
2022/07/21 00:08:17;;;;;;;8.10;5.70;;;;;;;18.50;86.41;96362.81;2043659;29;20050;-46
2022/07/21 00:09:19;;;;;;;7.05;6.05;;;;;;;18.50;86.86;96357.56;2045317;28;20445;-42
2022/07/21 00:10:22;;;;;;;10.40;6.50;;;;;;;18.56;86.90;96357.09;2048198;28;20074;-45
2022/07/21 00:11:23;;;;;;;8.63;6.18;;;;;;;18.56;85.63;96367.63;2048473;28;20073;-45
2022/07/21 00:12:25;;;;;;;7.93;5.88;;;;;;;18.54;85.93;96371.31;2048232;28;20050;-42
2022/07/21 00:13:26;;;;;;;8.05;6.32;;;;;;;18.58;85.46;96370.13;2040710;28;20435;-45
2022/07/21 00:14:27;;;;;;;11.27;5.82;;;;;;;18.64;85.17;96364.44;2048327;29;20046;-44
2022/07/21 00:15:28;;;;;;;7.78;6.15;;;;;;;18.71;83.79;96371.75;2040607;29;20039;-44
2022/07/21 00:16:30;;;;;;;10.98;6.03;;;;;;;18.68;83.59;96389.53;2040498;28;20048;-43
2022/07/21 00:17:31;;;;;;;11.27;5.63;;;;;;;18.64;85.68;96394.19;2065080;28;20420;-44
2022/07/21 00:18:32;;;;;;;10.23;6.20;;;;;;;18.63;84.87;96392.53;2057011;28;20042;-45
2022/07/21 00:19:33;;;;;;;8.68;6.40;;;;;;;18.60;84.99;96394.53;2055890;28;20046;-44
2022/07/21 00:20:34;;;;;;;7.82;6.10;;;;;;;18.60;84.91;96395.34;2048119;29;20409;-44
2022/07/21 00:21:36;;;;;;;7.60;5.95;;;;;;;18.51;84.93;96398.66;2033279;29;20050;-45
2022/07/21 00:22:37;;;;;;;11.95;6.13;;;;;;;18.46;85.33;96401.63;2047733;28;20050;-45
2022/07/21 00:23:39;;;;;;;9.45;6.60;;;;;;;18.41;86.44;96403.75;2040475;29;20510;-42
2022/07/21 00:24:40;;;;;;;7.20;6.38;;;;;;;18.40;85.46;96409.13;2040296;28;20062;-45
2022/07/21 00:25:41;;;;;;;8.70;6.65;;;;;;;18.36;86.43;96419.00;2033151;29;20048;-42
2022/07/21 00:26:43;;;;;;;10.55;5.70;;;;;;;18.33;85.59;96423.66;2040354;28;20051;-45
2022/07/21 00:27:44;;;;;;;9.65;6.10;;;;;;;18.30;86.25;96424.72;2055637;28;20597;-46
2022/07/21 00:28:45;;;;;;;6.28;5.30;;;;;;;18.32;85.57;96422.81;2055781;28;20050;-44
2022/07/21 00:29:47;;;;;;;7.80;6.10;;;;;;;18.30;84.94;96433.44;2052509;28;20054;-43
2022/07/21 00:30:48;;;;;;;7.95;6.32;;;;;;;18.27;85.67;96427.56;2055777;28;20046;-45
2022/07/21 00:31:49;;;;;;;8.73;5.05;;;;;;;18.29;84.56;96429.13;2056068;28;20073;-44
2022/07/21 00:32:50;;;;;;;9.15;5.50;;;;;;;18.26;85.21;96439.88;2055774;28;20547;-46
2022/07/21 00:33:52;;;;;;;6.55;5.50;;;;;;;18.21;85.44;96439.34;2047914;29;20051;-44
2022/07/21 00:34:53;;;;;;;7.00;5.55;;;;;;;18.19;85.01;96437.78;2033008;29;20056;-45
2022/07/21 00:35:54;;;;;;;7.90;5.45;;;;;;;18.19;84.51;96441.25;2032555;29;20048;-44
2022/07/21 00:36:55;;;;;;;8.57;5.68;;;;;;;18.15;84.87;96437.16;2040430;29;20044;-44
2022/07/21 00:37:57;;;;;;;7.75;5.55;;;;;;;18.14;85.04;96432.84;2040936;29;20055;-42
2022/07/21 00:38:58;;;;;;;6.25;5.40;;;;;;;18.10;85.42;96439.28;2048543;28;20055;-45
2022/07/21 00:39:59;;;;;;;7.00;5.72;;;;;;;18.10;86.30;96444.53;2055661;28;20061;-45
2022/07/21 00:41:00;;;;;;;6.65;5.50;;;;;;;18.05;85.28;96442.22;2063579;28;20050;-45
2022/07/21 00:42:02;;;;;;;11.43;5.80;;;;;;;18.08;85.70;96443.78;2056239;28;20536;-43
2022/07/21 00:43:03;;;;;;;7.78;5.68;;;;;;;18.10;84.32;96441.91;2056098;28;20528;-47
2022/07/21 00:44:04;;;;;;;6.88;5.40;;;;;;;18.12;85.45;96440.00;2064222;28;20057;-46
2022/07/21 00:45:06;;;;;;;7.43;5.40;;;;;;;18.10;85.59;96441.91;2049264;29;20051;-44
2022/07/21 00:46:07;;;;;;;5.90;4.80;;;;;;;18.09;85.11;96437.59;2041127;29;20082;-43
2022/07/21 00:47:09;;;;;;;6.07;5.30;;;;;;;18.09;85.35;96432.31;2032713;29;20048;-44
2022/07/21 00:48:11;;;;;;;7.30;5.35;;;;;;;18.09;85.02;96432.31;2025345;29;20061;-45
2022/07/21 00:49:12;;;;;;;7.20;5.50;;;;;;;18.05;86.05;96428.25;2039895;28;20103;-45
2022/07/21 00:50:15;;;;;;;7.38;5.22;;;;;;;18.03;85.60;96422.25;2055470;28;20065;-44
2022/07/21 00:51:16;;;;;;;7.07;5.25;;;;;;;18.05;85.75;96417.75;2056498;28;20439;-45
2022/07/21 00:52:18;;;;;;;7.85;5.75;;;;;;;18.08;85.46;96420.97;2056260;28;20054;-46
2022/07/21 00:53:19;;;;;;;7.43;5.53;;;;;;;18.08;85.23;96415.72;2056478;28;20050;-41
2022/07/21 00:54:20;;;;;;;10.68;5.97;;;;;;;18.09;85.33;96416.56;2048590;28;20409;-45
2022/07/21 00:55:22;;;;;;;8.07;5.85;;;;;;;18.12;85.27;96416.34;2040129;29;20047;-46
2022/07/21 00:56:23;;;;;;;6.88;5.53;;;;;;;18.15;84.94;96404.75;2048775;28;20043;-46
2022/07/21 00:57:25;;;;;;;11.45;5.88;;;;;;;18.14;85.80;96414.44;2048405;29;20039;-43
2022/07/21 00:58:26;;;;;;;9.90;5.78;;;;;;;18.15;85.54;96410.88;2048210;28;20050;-45
2022/07/21 00:59:28;;;;;;;7.07;5.68;;;;;;;18.09;85.42;96408.66;2047859;29;20035;-45
2022/07/21 01:00:30;;;;;;;7.20;5.40;;;;;;;18.06;85.85;96408.91;2039887;29;20047;-44
2022/07/21 01:01:31;;;;;;;7.72;6.20;;;;;;;18.04;86.35;96405.53;2040289;29;20552;-43
2022/07/21 01:02:36;;;;;;;8.75;5.93;;;;;;;18.04;86.24;96408.16;2032691;29;20044;-46
2022/07/21 01:03:37;;;;;;;7.75;5.43;;;;;;;18.05;86.04;96407.22;2026000;29;20083;-44
2022/07/21 01:04:41;;;;;;;8.75;5.95;;;;;;;18.11;85.68;96403.31;2040672;28;20050;-46
2022/07/21 01:05:46;;;;;;;8.95;6.35;;;;;;;18.06;86.18;96398.38;2091236;22;20048;-37
2022/07/21 01:06:47;;;;;;;8.02;6.05;;;;;;;18.01;86.46;96403.97;2055337;28;20043;-38
2022/07/21 01:07:51;;;;;;;7.82;5.85;;;;;;;18.02;86.54;96402.19;2056075;28;20431;-39
2022/07/21 01:08:53;;;;;;;8.23;6.15;;;;;;;18.03;86.37;96399.44;2064562;28;20050;-36
2022/07/21 01:09:55;;;;;;;7.55;6.35;;;;;;;18.04;86.36;96405.53;2072151;28;20054;-41
2022/07/21 01:10:56;;;;;;;9.20;6.60;;;;;;;17.98;88.07;96409.44;2072064;28;20050;-39
2022/07/21 01:11:57;;;;;;;6.95;6.25;;;;;;;17.98;86.92;96408.59;2072208;28;20415;-38
2022/07/21 01:12:59;;;;;;;7.93;6.18;;;;;;;17.95;86.37;96407.03;2056541;28;20059;-39
2022/07/21 01:14:01;;;;;;;11.93;6.72;;;;;;;17.97;86.82;96409.56;2055793;28;20086;-38
2022/07/21 01:15:04;;;;;;;8.98;6.53;;;;;;;17.98;87.60;96411.22;2072391;28;20080;-39
2022/07/21 01:16:05;;;;;;;8.15;7.07;;;;;;;17.95;87.86;96408.81;2056513;28;20094;-39
2022/07/21 01:17:06;;;;;;;8.18;7.00;;;;;;;17.92;87.82;96414.28;2048743;28;20047;-41
2022/07/21 01:18:08;;;;;;;9.30;6.97;;;;;;;17.91;88.20;96415.22;2048421;28;20055;-36
2022/07/21 01:19:09;;;;;;;7.68;6.72;;;;;;;17.90;88.21;96411.75;2048756;28;20486;-38
2022/07/21 01:20:13;;;;;;;7.72;6.93;;;;;;;17.90;87.44;96410.91;2064280;28;20069;-40
2022/07/21 01:21:33;;;;;;;7.75;6.85;;;;;;;17.90;87.78;96413.56;2072670;28;20128;-38
2022/07/21 01:22:36;;;;;;;9.05;7.00;;;;;;;17.95;87.71;96411.44;2072112;28;20053;-40
2022/07/21 01:23:37;;;;;;;7.65;6.90;;;;;;;17.94;87.99;96421.13;2056423;28;20045;-37
2022/07/21 01:24:38;;;;;;;8.68;6.75;;;;;;;17.94;87.88;96415.03;2056196;28;20386;-37
2022/07/21 01:25:39;;;;;;;10.07;6.93;;;;;;;17.97;87.19;96422.69;2040550;29;20051;-37
2022/07/21 01:26:45;;;;;;;8.57;7.57;;;;;;;17.98;87.87;96421.72;2040587;29;20051;-38
2022/07/21 01:27:47;;;;;;;9.15;7.50;;;;;;;17.95;88.46;96420.16;2064097;28;20042;-40
2022/07/21 01:28:48;;;;;;;8.85;7.00;;;;;;;17.98;88.36;96419.09;2064927;28;20050;-37
2022/07/21 01:29:49;;;;;;;9.82;7.50;;;;;;;18.01;88.14;96416.25;2070078;28;20061;-39
2022/07/21 01:30:50;;;;;;;7.68;6.85;;;;;;;18.08;87.67;96415.72;2064244;28;20042;-37
2022/07/21 01:31:51;;;;;;;9.52;7.68;;;;;;;18.11;87.85;96417.28;2064244;28;20053;-39
2022/07/21 01:32:53;;;;;;;8.50;7.70;;;;;;;18.15;87.72;96410.03;2072321;28;20042;-35
2022/07/21 01:33:54;;;;;;;8.65;7.28;;;;;;;18.18;87.46;96415.94;2072339;28;20045;-37
2022/07/21 01:34:55;;;;;;;9.13;6.93;;;;;;;18.20;87.60;96411.41;2064380;28;20448;-39
2022/07/21 01:35:56;;;;;;;8.68;7.68;;;;;;;18.19;87.09;96419.38;2064229;28;20046;-36
2022/07/21 01:36:57;;;;;;;10.35;8.00;;;;;;;18.16;87.80;96422.22;2071985;28;20443;-39
2022/07/21 01:37:59;;;;;;;10.20;7.43;;;;;;;18.13;88.11;96412.78;2072961;28;20049;-38
2022/07/21 01:41:40;;;;;;;9.65;7.90;;;;;;;18.17;88.16;96408.13;2066561;28;20065;-40
2022/07/21 01:42:41;;;;;;;9.73;7.47;;;;;;;18.15;87.83;96412.66;2050968;28;20050;-39
2022/07/21 01:43:42;;;;;;;9.77;8.05;;;;;;;18.16;87.51;96415.19;2056126;28;20061;-37
2022/07/21 01:44:44;;;;;;;11.80;6.97;;;;;;;18.21;86.67;96414.88;2072063;28;20388;-38
2022/07/21 01:45:45;;;;;;;8.48;7.28;;;;;;;18.21;86.15;96409.63;2063887;28;20057;-39
2022/07/21 01:46:48;;;;;;;8.20;7.25;;;;;;;18.22;86.31;96412.13;2056483;28;20098;-39
2022/07/21 01:47:49;;;;;;;8.40;7.60;;;;;;;18.23;86.59;96413.81;2048621;28;20413;-37
2022/07/21 01:48:51;;;;;;;9.02;7.15;;;;;;;18.25;86.24;96414.53;2048801;28;20043;-38
2022/07/21 01:49:52;;;;;;;7.95;7.15;;;;;;;18.30;86.65;96411.56;2055758;28;20068;-37
2022/07/21 01:50:53;;;;;;;8.77;7.47;;;;;;;18.31;86.41;96413.28;2064031;28;20057;-38
2022/07/21 01:51:55;;;;;;;9.40;7.45;;;;;;;18.29;85.91;96405.47;2056216;28;20081;-40
2022/07/21 01:52:56;;;;;;;8.45;7.35;;;;;;;18.40;85.77;96419.66;2048295;28;20062;-40
2022/07/21 01:53:57;;;;;;;8.93;7.03;;;;;;;18.39;85.61;96415.31;2064355;28;20542;-38
2022/07/21 01:54:58;;;;;;;9.65;8.00;;;;;;;18.40;86.09;96419.66;2072484;28;20411;-38
2022/07/21 01:55:59;;;;;;;10.57;7.47;;;;;;;18.36;86.47;96419.00;2048025;28;20066;-35
2022/07/21 01:57:01;;;;;;;9.27;7.60;;;;;;;18.35;86.01;96422.59;2056342;28;20046;-40
2022/07/21 01:58:02;;;;;;;8.93;8.02;;;;;;;18.38;86.56;96421.53;2064184;28;20053;-41
2022/07/21 01:59:03;;;;;;;9.30;7.88;;;;;;;18.36;86.69;96418.19;2055958;28;20053;-38
2022/07/21 02:00:05;;;;;;;8.35;7.45;;;;;;;18.35;86.01;96432.28;2064252;28;20583;-40
2022/07/21 02:01:08;;;;;;;9.38;8.10;;;;;;;18.35;85.89;96432.28;2063893;28;20046;-38
2022/07/21 02:02:09;;;;;;;9.38;7.45;;;;;;;18.32;86.66;96425.44;2048088;28;20560;-41
2022/07/21 02:03:10;;;;;;;10.15;7.85;;;;;;;18.34;86.47;96427.97;2040756;28;20124;-42
2022/07/21 02:04:11;;;;;;;10.95;8.45;;;;;;;18.33;86.80;96429.75;2056322;28;20074;-40
2022/07/21 02:05:13;;;;;;;11.55;8.38;;;;;;;18.34;86.43;96436.72;2063868;28;20061;-35
2022/07/21 02:06:14;;;;;;;8.60;7.70;;;;;;;18.36;86.13;96433.94;2063994;28;20046;-37
2022/07/21 02:07:15;;;;;;;10.30;8.13;;;;;;;18.36;86.41;96433.94;2064201;28;20072;-38
2022/07/21 02:08:16;;;;;;;10.32;8.80;;;;;;;18.40;86.67;96438.88;2072584;28;20061;-36
2022/07/21 02:09:18;;;;;;;11.88;8.30;;;;;;;18.42;86.28;96444.06;2064347;28;20050;-36
2022/07/21 02:10:19;;;;;;;11.15;8.48;;;;;;;18.43;85.65;96446.56;2056056;28;20047;-39
2022/07/21 02:11:20;;;;;;;10.20;9.10;;;;;;;18.47;86.38;96442.78;2048120;29;20051;-37
2022/07/21 02:12:21;;;;;;;10.10;8.85;;;;;;;18.51;85.91;96438.94;2047888;28;20552;-38
2022/07/21 02:13:23;;;;;;;11.82;8.65;;;;;;;18.52;85.74;96431.91;2055854;28;20057;-37
2022/07/21 02:14:24;;;;;;;10.50;8.95;;;;;;;18.51;86.15;96428.44;2055522;28;20054;-36
2022/07/21 02:15:25;;;;;;;12.82;8.55;;;;;;;18.52;86.34;96426.63;2048522;28;20054;-38
2022/07/21 02:16:26;;;;;;;10.77;8.70;;;;;;;18.50;86.74;96436.44;2047673;28;20047;-37
2022/07/21 02:17:27;;;;;;;11.50;9.00;;;;;;;18.50;86.30;96439.09;2064105;28;20051;-38
2022/07/21 02:18:29;;;;;;;13.02;9.57;;;;;;;18.51;86.80;96438.94;2057682;28;20685;-37
2022/07/21 02:19:30;;;;;;;10.85;9.43;;;;;;;18.48;86.94;96443.59;2066195;28;20069;-36
2022/07/21 02:20:31;;;;;;;10.63;9.50;;;;;;;18.51;86.16;96432.84;2065833;28;20038;-40
2022/07/21 02:21:32;;;;;;;11.73;10.00;;;;;;;18.50;85.77;96437.28;2066165;28;20038;-37
2022/07/21 02:22:33;;;;;;;14.27;9.77;;;;;;;18.52;86.49;96434.53;2065442;28;20435;-36
2022/07/21 02:23:35;;;;;;;11.00;9.90;;;;;;;18.54;86.27;96440.53;2065800;28;20050;-36
2022/07/21 02:24:36;;;;;;;12.85;10.90;;;;;;;18.50;86.93;96434.66;2073764;28;20052;-37
2022/07/21 02:25:37;;;;;;;13.00;11.55;;;;;;;18.52;86.52;96435.38;2065604;28;20062;-39
2022/07/21 02:26:38;;;;;;;12.63;11.10;;;;;;;18.54;86.21;96429.16;2041450;28;20059;-35
2022/07/21 02:27:41;;;;;;;13.82;11.13;;;;;;;18.57;86.89;96431.56;2049909;28;20054;-37
2022/07/21 02:28:42;;;;;;;13.00;11.57;;;;;;;18.55;86.64;96455.38;2057595;28;20090;-37
2022/07/21 02:29:43;;;;;;;14.32;12.23;;;;;;;18.52;86.56;96438.03;2057426;28;20181;-41
2022/07/21 02:30:45;;;;;;;18.83;13.27;;;;;;;18.55;86.84;96438.72;2065471;28;20046;-34
2022/07/21 02:31:46;;;;;;;14.07;12.68;;;;;;;18.54;86.98;96434.44;2041764;29;20051;-39
2022/07/21 02:32:47;;;;;;;17.00;12.75;;;;;;;18.56;86.84;96422.84;2049992;28;20725;-37
2022/07/21 02:33:48;;;;;;;15.02;13.52;;;;;;;18.54;86.48;96424.75;2065649;28;20054;-35
2022/07/21 02:34:50;;;;;;;17.48;13.93;;;;;;;18.57;86.50;96421.06;2041495;28;20069;-39
2022/07/21 02:35:51;;;;;;;18.70;13.63;;;;;;;18.52;86.65;96422.25;2057681;28;20525;-36
2022/07/21 02:36:52;;;;;;;15.85;14.13;;;;;;;18.51;87.29;96423.16;2057613;28;20058;-36
2022/07/21 02:37:53;;;;;;;16.90;14.32;;;;;;;18.47;86.88;96416.47;2041695;29;20039;-36
2022/07/21 02:38:54;;;;;;;16.15;14.52;;;;;;;18.46;87.08;96416.56;2033955;28;20052;-36
2022/07/21 02:39:56;;;;;;;17.55;14.27;;;;;;;18.46;87.37;96417.41;2049825;28;20047;-39
2022/07/21 02:40:57;;;;;;;17.33;14.23;;;;;;;18.44;87.07;96423.72;2057545;28;20057;-35
2022/07/21 02:41:59;;;;;;;16.50;14.75;;;;;;;18.39;87.87;96413.56;2056936;28;20073;-36
2022/07/21 02:43:00;;;;;;;17.50;14.40;;;;;;;18.35;87.52;96417.34;2041255;28;20051;-42
2022/07/21 02:44:01;;;;;;;16.05;14.35;;;;;;;18.36;87.64;96418.19;2049633;28;20062;-36
2022/07/21 02:45:04;;;;;;;15.48;13.70;;;;;;;18.42;87.52;96412.50;2057497;28;20047;-35
2022/07/21 02:46:05;;;;;;;16.15;14.05;;;;;;;18.37;87.82;96409.34;2041716;29;20434;-37
2022/07/21 02:47:06;;;;;;;16.60;14.90;;;;;;;18.30;88.19;96415.03;2026319;29;20049;-40
2022/07/21 02:48:07;;;;;;;16.27;13.95;;;;;;;18.36;88.00;96413.75;2041957;28;20051;-34
2022/07/21 02:49:08;;;;;;;18.58;15.10;;;;;;;18.33;88.09;96415.78;2057482;28;20073;-36
2022/07/21 02:50:09;;;;;;;19.40;15.60;;;;;;;18.32;88.34;96416.72;2057595;28;20054;-35
2022/07/21 02:51:11;;;;;;;16.73;14.93;;;;;;;18.29;88.73;96417.78;2041645;29;20059;-38
2022/07/21 02:52:12;;;;;;;19.23;15.25;;;;;;;18.30;88.86;96412.41;2041715;28;20410;-35
2022/07/21 02:53:18;;;;;;;16.33;14.65;;;;;;;18.32;88.27;96409.69;2049555;28;20051;-37
2022/07/21 02:54:19;;;;;;;16.10;13.93;;;;;;;18.36;87.67;96418.19;2050322;28;20056;-37
2022/07/21 02:55:20;;;;;;;19.45;15.27;;;;;;;18.31;88.17;96426.41;2041822;28;20051;-40
2022/07/21 02:56:22;;;;;;;18.13;14.82;;;;;;;18.26;87.67;96431.16;2049784;28;20058;-35
2022/07/21 02:57:23;;;;;;;16.63;14.55;;;;;;;18.25;87.86;96430.28;2049631;28;20433;-37
2022/07/21 02:58:25;;;;;;;16.60;14.82;;;;;;;18.26;87.98;96436.41;2057857;28;20042;-36
2022/07/21 02:59:27;;;;;;;17.40;15.63;;;;;;;18.26;89.00;96442.50;2057423;28;20138;-38
2022/07/21 03:00:28;;;;;;;20.30;14.77;;;;;;;18.25;87.87;96438.19;2057522;28;20046;-36
2022/07/21 03:01:29;;;;;;;16.23;14.13;;;;;;;18.32;87.86;96438.59;2057061;28;20062;-39
2022/07/21 03:02:30;;;;;;;18.55;15.57;;;;;;;18.28;88.15;96442.38;2049060;28;20047;-36
2022/07/21 03:03:33;;;;;;;20.17;15.30;;;;;;;18.24;88.47;96439.13;2065348;28;20038;-37
2022/07/21 03:04:34;;;;;;;19.33;15.57;;;;;;;18.24;88.95;96440.94;2065541;28;20042;-36
2022/07/21 03:05:36;;;;;;;19.83;16.08;;;;;;;18.24;88.49;96440.94;2049675;28;20058;-36
2022/07/21 03:06:37;;;;;;;18.55;15.35;;;;;;;18.26;88.59;96454.81;2057280;28;20058;-39
2022/07/21 03:07:38;;;;;;;17.02;15.18;;;;;;;18.24;88.64;96449.66;2049786;28;20047;-35
2022/07/21 03:08:39;;;;;;;18.67;15.85;;;;;;;18.25;88.82;96442.59;2042244;28;20051;-37
2022/07/21 03:09:41;;;;;;;16.85;15.15;;;;;;;18.29;88.05;96447.53;2041998;29;20048;-34
2022/07/21 03:10:42;;;;;;;17.42;15.63;;;;;;;18.32;88.01;96446.47;2049199;28;20051;-35
2022/07/21 03:11:43;;;;;;;17.85;15.85;;;;;;;18.30;88.35;96445.75;2049454;28;20528;-40
2022/07/21 03:12:44;;;;;;;19.17;15.95;;;;;;;18.27;87.89;96444.16;2049584;28;20047;-36
2022/07/21 03:13:45;;;;;;;17.10;15.27;;;;;;;18.25;88.73;96448.69;2049075;28;20051;-36
2022/07/21 03:14:47;;;;;;;17.63;15.70;;;;;;;18.31;88.54;96442.19;2049389;29;20051;-36
2022/07/21 03:15:48;;;;;;;19.92;15.65;;;;;;;18.30;88.11;96443.94;2033725;29;20499;-36
2022/07/21 03:16:50;;;;;;;17.23;15.23;;;;;;;18.30;88.44;96437.84;2041395;28;20048;-36
2022/07/21 03:17:53;;;;;;;17.40;15.55;;;;;;;18.34;88.93;96441.97;2049085;28;20051;-39
2022/07/21 03:18:54;;;;;;;18.45;15.48;;;;;;;18.41;87.69;96427.41;2065087;28;20436;-36
2022/07/21 03:19:55;;;;;;;16.30;14.60;;;;;;;18.44;87.65;96431.59;2049226;28;20409;-35
2022/07/21 03:20:57;;;;;;;16.42;14.05;;;;;;;18.49;87.60;96426.88;2049393;28;20043;-36
2022/07/21 03:21:58;;;;;;;22.35;15.68;;;;;;;18.51;87.13;96423.16;2057088;28;20366;-40
2022/07/21 03:23:00;;;;;;;18.65;15.15;;;;;;;18.47;87.31;96426.13;2057439;28;20708;-36
2022/07/21 03:24:01;;;;;;;18.38;15.85;;;;;;;18.36;87.31;96433.94;2057197;28;20050;-36
2022/07/21 03:25:03;;;;;;;17.88;15.98;;;;;;;18.40;87.35;96430.16;2048942;29;20051;-36
2022/07/21 03:26:04;;;;;;;18.52;15.50;;;;;;;18.40;87.18;96425.75;2049729;28;20058;-39
2022/07/21 03:27:05;;;;;;;20.30;16.92;;;;;;;18.35;87.13;96422.59;2065481;28;20050;-35
2022/07/21 03:28:07;;;;;;;16.50;14.68;;;;;;;18.43;87.14;96411.53;2056594;28;20046;-39
2022/07/21 03:29:09;;;;;;;21.73;15.15;;;;;;;18.49;86.67;96411.91;2055940;28;20078;-39
2022/07/21 03:30:11;;;;;;;18.05;15.02;;;;;;;18.51;86.82;96404.75;2057136;28;20480;-37
2022/07/21 03:31:12;;;;;;;19.20;14.73;;;;;;;18.50;87.27;96403.09;2049272;28;20640;-39
2022/07/21 03:32:13;;;;;;;17.45;15.52;;;;;;;18.46;87.01;96399.00;2048905;28;20062;-36
2022/07/21 03:33:14;;;;;;;20.50;15.75;;;;;;;18.51;86.57;96394.25;2049211;28;20521;-37
2022/07/21 03:34:15;;;;;;;16.83;14.40;;;;;;;18.54;86.00;96393.19;2049388;28;20047;-36
2022/07/21 03:35:17;;;;;;;18.55;15.77;;;;;;;18.55;86.94;96394.88;2056938;28;20043;-35
2022/07/21 03:36:18;;;;;;;16.52;14.52;;;;;;;18.57;86.39;96405.28;2056843;28;20054;-36
2022/07/21 03:37:19;;;;;;;19.63;15.23;;;;;;;18.57;86.62;96416.63;2064932;28;20065;-36
2022/07/21 03:38:20;;;;;;;17.10;14.57;;;;;;;18.61;85.99;96428.63;2057077;28;20043;-39
2022/07/21 03:39:21;;;;;;;17.33;15.25;;;;;;;18.63;85.85;96439.88;2064715;28;20409;-36
2022/07/21 03:40:24;;;;;;;15.95;14.32;;;;;;;18.56;86.28;96464.09;2065110;28;20046;-37
2022/07/21 03:41:25;;;;;;;18.67;14.95;;;;;;;18.55;86.94;96463.25;2064899;28;20046;-39
2022/07/21 03:42:26;;;;;;;16.65;14.85;;;;;;;18.53;86.64;96465.16;2056936;28;20038;-36
2022/07/21 03:43:27;;;;;;;19.60;15.52;;;;;;;18.52;87.19;96466.94;2057191;28;20047;-37
2022/07/21 03:44:28;;;;;;;20.35;15.50;;;;;;;18.52;87.13;96461.69;2073060;28;20049;-36
2022/07/21 03:45:30;;;;;;;15.82;14.15;;;;;;;18.52;86.92;96451.16;2073830;28;20041;-36
2022/07/21 03:46:31;;;;;;;16.73;14.07;;;;;;;18.54;86.47;96447.56;2056602;28;20058;-37
2022/07/21 03:47:32;;;;;;;18.80;15.93;;;;;;;18.52;85.82;96448.53;2057012;28;20050;-36
2022/07/21 03:48:33;;;;;;;16.77;15.10;;;;;;;18.54;85.51;96451.03;2073719;28;20408;-35
2022/07/21 03:49:35;;;;;;;18.05;15.10;;;;;;;18.58;85.41;96449.03;2073235;28;20048;-35
2022/07/21 03:50:40;;;;;;;16.90;15.18;;;;;;;18.54;86.26;96451.03;2056664;28;20047;-36
2022/07/21 03:51:42;;;;;;;19.88;15.73;;;;;;;18.49;86.23;96440.84;2065588;28;20061;-36
2022/07/21 03:52:44;;;;;;;18.08;15.82;;;;;;;18.49;86.17;96446.09;2072919;28;20690;-34
2022/07/21 03:53:45;;;;;;;18.13;16.27;;;;;;;18.49;86.26;96445.28;2065405;28;20050;-36
2022/07/21 03:54:46;;;;;;;23.38;17.35;;;;;;;18.45;86.87;96455.19;2049481;28;20051;-35
2022/07/21 03:55:48;;;;;;;20.58;16.60;;;;;;;18.42;87.54;96444.06;2041050;29;20521;-37
2022/07/21 03:56:49;;;;;;;20.80;17.30;;;;;;;18.41;86.95;96458.13;2048943;28;20059;-36
2022/07/21 03:57:56;;;;;;;20.83;17.48;;;;;;;18.35;87.65;96453.31;2064673;28;20061;-36
2022/07/21 03:58:57;;;;;;;22.75;17.50;;;;;;;18.30;88.45;96462.34;2073375;28;20413;-32
2022/07/21 03:59:58;;;;;;;19.38;17.15;;;;;;;18.27;88.66;96459.94;2074298;28;20050;-37
2022/07/21 04:00:59;;;;;;;24.05;18.30;;;;;;;18.22;88.50;96458.59;2064834;28;20512;-39
2022/07/21 04:02:01;;;;;;;20.23;18.08;;;;;;;18.19;88.88;96459.66;2056326;28;20050;-36
2022/07/21 04:03:02;;;;;;;21.20;17.77;;;;;;;18.17;89.13;96465.97;2049499;28;20553;-36
2022/07/21 04:04:03;;;;;;;23.77;18.83;;;;;;;18.12;90.59;96460.19;2056706;28;20127;-36
2022/07/21 04:05:05;;;;;;;20.58;18.38;;;;;;;18.12;90.11;96455.75;2056900;28;20054;-38
2022/07/21 04:06:10;;;;;;;20.67;18.65;;;;;;;18.13;90.71;96454.00;2048921;28;20047;-39
2022/07/21 04:07:11;;;;;;;21.67;19.45;;;;;;;18.08;91.23;96456.94;2072541;28;20443;-38
2022/07/21 04:08:13;;;;;;;22.20;19.58;;;;;;;18.09;91.26;96461.22;2065003;28;20058;-37
2022/07/21 04:09:17;;;;;;;24.88;20.15;;;;;;;18.08;91.21;96456.94;2065239;28;20049;-37
2022/07/21 04:10:20;;;;;;;22.58;20.30;;;;;;;18.04;91.30;96471.22;2073049;28;20037;-38
2022/07/21 04:11:21;;;;;;;23.00;20.55;;;;;;;18.03;91.52;96469.56;2049585;28;20086;-37
2022/07/21 04:12:27;;;;;;;22.75;20.27;;;;;;;18.02;91.41;96468.72;2048863;28;20520;-38
2022/07/21 04:13:28;;;;;;;25.27;20.98;;;;;;;18.02;92.14;96473.97;2065489;28;20535;-40
2022/07/21 04:14:29;;;;;;;23.75;20.58;;;;;;;18.00;91.35;96480.28;2064475;28;20050;-37
2022/07/21 04:15:31;;;;;;;24.45;21.55;;;;;;;17.98;92.62;96480.38;2072672;28;20057;-39
2022/07/21 04:16:32;;;;;;;25.95;22.58;;;;;;;17.98;92.56;96479.53;2056761;28;20051;-37
2022/07/21 04:17:33;;;;;;;27.88;22.27;;;;;;;17.96;92.47;96479.66;2065026;28;20045;-37
2022/07/21 04:18:34;;;;;;;24.85;22.17;;;;;;;17.96;93.39;96486.69;2064786;28;20065;-39
2022/07/21 04:19:35;;;;;;;25.23;22.65;;;;;;;17.96;93.04;96487.53;2056862;28;20432;-35
2022/07/21 04:20:37;;;;;;;25.17;22.45;;;;;;;17.95;92.36;96488.47;2072923;28;20038;-37
2022/07/21 04:21:38;;;;;;;26.45;23.63;;;;;;;17.95;93.06;96498.16;2072566;28;20034;-36
2022/07/21 04:22:40;;;;;;;27.02;23.35;;;;;;;17.91;92.85;96488.78;2064579;28;20042;-37
2022/07/21 04:23:41;;;;;;;27.73;24.38;;;;;;;17.91;93.26;96494.91;2072773;28;20050;-38
2022/07/21 04:24:42;;;;;;;25.02;22.13;;;;;;;17.89;93.09;96502.03;2072559;28;20562;-37
2022/07/21 04:25:43;;;;;;;23.90;21.35;;;;;;;17.91;93.13;96501.91;2073062;28;20422;-36
2022/07/21 04:26:44;;;;;;;26.75;23.30;;;;;;;17.91;93.30;96494.03;2073881;28;20092;-39
2022/07/21 04:27:46;;;;;;;26.27;22.25;;;;;;;17.92;93.56;96496.56;2056819;28;20480;-37
2022/07/21 04:28:47;;;;;;;25.88;23.17;;;;;;;17.95;94.15;96504.25;2056133;28;20042;-38
2022/07/21 04:29:48;;;;;;;27.83;22.38;;;;;;;17.95;94.13;96504.25;2056795;28;20110;-38
2022/07/21 04:30:50;;;;;;;25.20;22.42;;;;;;;17.98;93.70;96511.06;2048281;28;20054;-36
2022/07/21 04:31:51;;;;;;;26.17;21.85;;;;;;;17.94;93.44;96522.75;2056169;28;20047;-39
2022/07/21 04:32:52;;;;;;;29.30;23.77;;;;;;;17.97;93.09;96519.91;2056465;28;20057;-33
2022/07/21 04:33:53;;;;;;;26.38;23.42;;;;;;;17.99;93.30;96518.88;2056553;28;20412;-37
2022/07/21 04:34:55;;;;;;;27.35;23.23;;;;;;;18.01;93.22;96511.69;2056321;28;20093;-40
2022/07/21 04:35:56;;;;;;;26.50;23.80;;;;;;;18.07;93.96;96516.53;2056729;28;20070;-35
2022/07/21 04:36:57;;;;;;;24.63;22.17;;;;;;;18.06;93.24;96519.28;2064844;28;20046;-38
2022/07/21 04:37:58;;;;;;;25.67;22.52;;;;;;;18.06;93.61;96516.63;2056790;28;20046;-37
2022/07/21 04:39:00;;;;;;;26.27;23.27;;;;;;;18.05;93.85;96531.56;2056648;28;20077;-39
2022/07/21 04:40:02;;;;;;;28.35;24.73;;;;;;;18.05;93.55;96530.75;2049138;28;20054;-37
2022/07/21 04:41:03;;;;;;;26.20;23.17;;;;;;;18.06;93.15;96524.53;2041880;28;20407;-39
2022/07/21 04:42:04;;;;;;;25.88;22.63;;;;;;;18.10;93.69;96526.00;2040863;29;20537;-35
2022/07/21 04:43:06;;;;;;;29.70;24.83;;;;;;;18.13;93.82;96527.59;2056256;28;20046;-38
2022/07/21 04:44:07;;;;;;;26.48;22.75;;;;;;;18.12;93.50;96521.47;2056766;28;20047;-35
2022/07/21 04:45:09;;;;;;;26.35;23.60;;;;;;;18.13;93.11;96527.59;2064427;28;20046;-36
2022/07/21 04:46:11;;;;;;;25.33;22.90;;;;;;;18.11;93.13;96522.41;2056940;28;20046;-36
2022/07/21 04:47:12;;;;;;;29.23;23.70;;;;;;;18.15;93.03;96521.28;2048714;28;20525;-38
2022/07/21 04:48:13;;;;;;;26.77;23.35;;;;;;;18.17;92.48;96524.63;2048185;28;20047;-36
2022/07/21 04:49:14;;;;;;;25.25;22.58;;;;;;;18.19;92.94;96520.09;2056006;28;20516;-38